Time;durP1;ratioP1;P1;durP2;ratioP2;P2;SDS_P1;SDS_P2;PMS_P1;PMS_P2;Temp;Humidity;BMP_temperature;BMP_pressure;BME280_temperature;BME280_humidity;BME280_pressure;Samples;Min_cycle;Max_cycle;Signal;HPM_P1;HPM_P2
2022/03/27 00:01:13;;;;;;;5.53;2.80;;;5.60;99.90;;;;;;4926559;28;20510;-69
2022/03/27 00:03:39;;;;;;;6.80;3.60;;;5.60;99.90;;;;;;4913290;29;20098;-70
2022/03/27 00:06:05;;;;;;;9.70;3.97;;;5.60;99.90;;;;;;4898713;29;20051;-70
2022/03/27 00:08:31;;;;;;;9.23;4.13;;;5.70;99.90;;;;;;4905400;29;20114;-70
2022/03/27 00:13:42;;;;;;;8.43;3.65;;;5.70;99.90;;;;;;4925409;28;20047;-70
2022/03/27 00:16:10;;;;;;;8.23;3.67;;;5.70;99.90;;;;;;4893865;29;20497;-70
2022/03/27 00:18:38;;;;;;;6.22;3.70;;;5.80;99.90;;;;;;4926972;28;20051;-70
2022/03/27 00:21:05;;;;;;;7.35;3.22;;;5.80;99.90;;;;;;4926508;29;20085;-70
2022/03/27 00:23:31;;;;;;;6.65;3.60;;;5.80;99.90;;;;;;4911696;28;20051;-70
2022/03/27 00:25:56;;;;;;;7.10;3.55;;;5.80;99.90;;;;;;4916759;29;20063;-70
2022/03/27 00:28:23;;;;;;;5.22;3.67;;;5.90;99.90;;;;;;4924143;29;20055;-70
2022/03/27 00:30:49;;;;;;;10.68;3.65;;;5.90;99.90;;;;;;4926311;28;20585;-70
2022/03/27 00:33:15;;;;;;;6.03;3.42;;;5.90;99.90;;;;;;4932684;28;20226;-70
2022/03/27 00:35:41;;;;;;;5.78;3.92;;;6.00;99.90;;;;;;4892787;29;20154;-70
2022/03/27 00:38:07;;;;;;;4.75;3.30;;;5.90;99.90;;;;;;4917379;29;20043;-70
2022/03/27 00:40:34;;;;;;;5.22;3.33;;;5.90;99.90;;;;;;4897667;29;20054;-70
2022/03/27 00:43:00;;;;;;;7.38;4.00;;;6.00;99.90;;;;;;4910188;29;20059;-70
2022/03/27 00:45:27;;;;;;;5.22;3.75;;;6.00;99.90;;;;;;4910660;29;20046;-70
2022/03/27 00:47:54;;;;;;;9.95;4.45;;;6.10;99.90;;;;;;4926671;28;20051;-71
2022/03/27 00:50:20;;;;;;;8.45;3.97;;;6.00;99.90;;;;;;4928234;28;20126;-70
2022/03/27 00:52:46;;;;;;;10.20;4.30;;;6.10;99.90;;;;;;4914169;29;20047;-70
2022/03/27 00:55:12;;;;;;;8.00;4.35;;;6.00;99.90;;;;;;4911154;29;20054;-70
2022/03/27 00:57:38;;;;;;;6.57;3.75;;;6.00;99.90;;;;;;4926381;28;20118;-70
2022/03/27 01:00:09;;;;;;;4.90;3.55;;;6.00;99.90;;;;;;4924346;29;20055;-70
2022/03/27 01:02:36;;;;;;;9.48;4.22;;;6.00;99.90;;;;;;4931696;29;20082;-70
2022/03/27 01:05:08;;;;;;;6.68;3.90;;;6.00;99.90;;;;;;4883243;28;20055;-70
2022/03/27 01:07:34;;;;;;;6.90;3.72;;;6.00;99.90;;;;;;4922877;29;20107;-70
2022/03/27 01:10:00;;;;;;;8.07;4.35;;;6.00;99.90;;;;;;4897697;29;20051;-70
2022/03/27 01:12:35;;;;;;;6.60;4.82;;;5.90;99.90;;;;;;4925642;28;20126;-70
2022/03/27 01:15:03;;;;;;;6.80;3.75;;;5.90;99.90;;;;;;4923525;29;20055;-70
2022/03/27 01:17:29;;;;;;;5.93;3.65;;;5.90;99.90;;;;;;4898276;29;20051;-70
2022/03/27 01:19:56;;;;;;;7.07;4.10;;;5.90;99.90;;;;;;4901281;29;20529;-70
2022/03/27 01:22:23;;;;;;;6.82;4.03;;;5.90;99.90;;;;;;4929279;28;20630;-70
2022/03/27 01:24:51;;;;;;;8.23;3.90;;;5.80;99.90;;;;;;4925811;28;20078;-70
2022/03/27 01:27:17;;;;;;;9.80;3.80;;;5.80;99.90;;;;;;4929522;29;20122;-70
2022/03/27 01:29:44;;;;;;;8.35;3.30;;;5.80;99.90;;;;;;4925174;28;20051;-70
2022/03/27 01:32:13;;;;;;;5.20;3.55;;;5.80;99.90;;;;;;4906676;29;20054;-70
2022/03/27 01:34:47;;;;;;;6.55;3.90;;;5.80;99.90;;;;;;4900601;29;20090;-70
2022/03/27 01:37:14;;;;;;;6.32;3.47;;;5.70;99.90;;;;;;4913444;29;20043;-70
2022/03/27 01:39:41;;;;;;;5.45;3.17;;;5.70;99.90;;;;;;4925147;28;20050;-70
2022/03/27 01:42:07;;;;;;;5.30;3.20;;;5.60;99.90;;;;;;4925953;29;20058;-70
2022/03/27 01:44:33;;;;;;;6.57;3.63;;;5.60;99.90;;;;;;4894824;29;20051;-70
2022/03/27 01:46:59;;;;;;;4.55;2.92;;;5.60;99.90;;;;;;4925135;28;20058;-70
2022/03/27 01:49:26;;;;;;;4.60;2.60;;;5.50;99.90;;;;;;4927496;28;20581;-70
2022/03/27 01:51:53;;;;;;;4.18;2.90;;;5.50;99.90;;;;;;4911791;29;20051;-70
2022/03/27 01:54:19;;;;;;;5.43;2.95;;;5.50;99.90;;;;;;4910317;29;20050;-70
2022/03/27 01:56:45;;;;;;;4.53;3.30;;;5.50;99.90;;;;;;4923788;29;20482;-70
2022/03/27 01:59:11;;;;;;;8.25;3.63;;;5.40;99.90;;;;;;4912343;29;20063;-70
2022/03/27 02:01:37;;;;;;;7.43;3.53;;;5.40;99.90;;;;;;4925877;29;20505;-70
2022/03/27 02:04:04;;;;;;;7.10;3.60;;;5.40;99.90;;;;;;4922152;29;20050;-70
2022/03/27 02:06:32;;;;;;;5.90;3.65;;;5.30;99.90;;;;;;4897298;29;20051;-70
2022/03/27 02:08:59;;;;;;;5.90;3.25;;;5.30;99.90;;;;;;4915390;29;20121;-71
2022/03/27 02:11:25;;;;;;;9.70;3.90;;;5.30;99.90;;;;;;4929353;28;20047;-70
2022/03/27 02:13:51;;;;;;;10.98;4.15;;;5.30;99.90;;;;;;4924207;29;20047;-70
2022/03/27 02:16:18;;;;;;;6.53;3.63;;;5.30;99.90;;;;;;4910400;29;20102;-70
2022/03/27 02:18:44;;;;;;;7.45;3.22;;;5.30;99.90;;;;;;4913980;29;20095;-70
2022/03/27 02:21:10;;;;;;;6.50;3.47;;;5.20;99.90;;;;;;4913363;29;20410;-70
2022/03/27 02:23:37;;;;;;;8.15;3.30;;;5.20;99.90;;;;;;4891549;29;20051;-70
2022/03/27 02:26:03;;;;;;;14.35;4.20;;;5.20;99.90;;;;;;4926038;29;20077;-70
2022/03/27 02:28:29;;;;;;;4.78;3.33;;;5.20;99.90;;;;;;4895634;29;20084;-70
2022/03/27 02:30:55;;;;;;;14.68;3.70;;;5.20;99.90;;;;;;4913387;29;20066;-71
2022/03/27 02:33:21;;;;;;;4.35;3.33;;;5.20;99.90;;;;;;4911814;29;20075;-72
2022/03/27 02:35:46;;;;;;;8.35;3.65;;;5.10;99.90;;;;;;4922834;28;20069;-71
2022/03/27 02:38:12;;;;;;;3.00;2.67;;;5.10;99.90;;;;;;4897075;29;20402;-71
2022/03/27 02:40:39;;;;;;;34.17;2.95;;;5.00;99.90;;;;;;4912599;29;20520;-71
2022/03/27 02:43:06;;;;;;;8.45;2.70;;;4.90;99.90;;;;;;4896622;28;20425;-70
2022/03/27 02:45:32;;;;;;;5.97;2.65;;;4.90;99.90;;;;;;4892634;29;20067;-71
2022/03/27 02:47:59;;;;;;;12.00;2.88;;;4.80;99.90;;;;;;4894864;28;20043;-70
2022/03/27 02:50:29;;;;;;;4.35;2.75;;;4.80;99.90;;;;;;4910852;29;20162;-70
2022/03/27 02:52:55;;;;;;;31.60;3.22;;;4.70;99.90;;;;;;4924985;28;20053;-71
2022/03/27 02:55:22;;;;;;;12.27;2.70;;;4.70;99.90;;;;;;4907586;29;20840;-70
2022/03/27 02:57:49;;;;;;;3.00;2.33;;;4.60;99.90;;;;;;4906666;29;20053;-70
2022/03/27 03:00:15;;;;;;;3.53;2.22;;;4.60;99.90;;;;;;4898320;29;20039;-70
2022/03/27 03:02:41;;;;;;;2.60;2.40;;;4.60;99.90;;;;;;4913231;29;20055;-70
2022/03/27 03:05:09;;;;;;;5.18;3.17;;;4.60;99.90;;;;;;4925079;28;20059;-70
2022/03/27 03:07:38;;;;;;;4.85;3.33;;;4.60;99.90;;;;;;4905572;29;20059;-70
2022/03/27 03:10:05;;;;;;;4.50;3.30;;;4.50;99.90;;;;;;4914344;28;20082;-70
2022/03/27 03:12:30;;;;;;;4.07;3.20;;;4.50;99.90;;;;;;4910216;29;20544;-70
2022/03/27 03:14:56;;;;;;;3.90;2.85;;;4.40;99.90;;;;;;4897296;29;20039;-70
2022/03/27 03:17:23;;;;;;;4.90;2.72;;;4.50;99.90;;;;;;4911767;29;20165;-70
2022/03/27 03:19:49;;;;;;;3.85;3.10;;;4.50;99.90;;;;;;4908100;29;20056;-70
2022/03/27 03:22:16;;;;;;;4.85;3.67;;;4.50;99.90;;;;;;4923532;28;20048;-70
2022/03/27 03:24:41;;;;;;;6.25;3.55;;;4.50;99.90;;;;;;4924013;28;20059;-70
2022/03/27 03:27:07;;;;;;;5.43;3.50;;;4.50;99.90;;;;;;4897253;29;20056;-70
2022/03/27 03:29:33;;;;;;;3.95;2.95;;;4.40;99.90;;;;;;4923550;29;20482;-70
2022/03/27 03:31:59;;;;;;;4.97;3.30;;;4.50;99.90;;;;;;4900512;29;20051;-71
2022/03/27 03:34:25;;;;;;;4.47;3.20;;;4.50;99.90;;;;;;4912951;29;20048;-71
2022/03/27 03:36:51;;;;;;;4.72;3.00;;;4.40;99.90;;;;;;4912654;29;20098;-71
2022/03/27 03:39:17;;;;;;;3.95;3.10;;;4.40;99.90;;;;;;4914590;29;20573;-71
2022/03/27 03:41:43;;;;;;;3.53;2.67;;;4.40;99.90;;;;;;4910550;29;20048;-71
2022/03/27 03:44:09;;;;;;;3.33;2.85;;;4.40;99.90;;;;;;4908409;29;20051;-71
2022/03/27 03:46:35;;;;;;;3.00;2.53;;;4.40;99.90;;;;;;4913447;29;20062;-70
2022/03/27 03:49:00;;;;;;;3.22;2.53;;;4.40;99.90;;;;;;4917933;28;22355;-71
2022/03/27 03:51:27;;;;;;;2.60;2.40;;;4.40;99.90;;;;;;4928900;28;20212;-71
2022/03/27 03:53:52;;;;;;;2.72;2.30;;;4.30;99.90;;;;;;4930329;29;20047;-71
2022/03/27 03:56:18;;;;;;;2.10;1.88;;;4.40;99.90;;;;;;4914976;29;20059;-71
2022/03/27 03:58:44;;;;;;;2.80;1.98;;;4.30;99.90;;;;;;4910075;29;20086;-71
2022/03/27 04:01:10;;;;;;;1.73;1.50;;;4.30;99.90;;;;;;4924406;29;20054;-71
2022/03/27 04:03:35;;;;;;;5.07;1.65;;;4.30;99.90;;;;;;4912823;29;20079;-71
2022/03/27 04:06:01;;;;;;;2.17;1.75;;;4.30;99.90;;;;;;4913384;29;20490;-71
2022/03/27 04:08:27;;;;;;;3.78;2.03;;;4.20;99.90;;;;;;4914807;29;20667;-71
2022/03/27 04:10:53;;;;;;;1.70;1.60;;;4.20;99.90;;;;;;4913019;29;20575;-71
2022/03/27 04:13:19;;;;;;;9.93;2.83;;;4.10;99.90;;;;;;4925192;28;20051;-71
2022/03/27 04:15:46;;;;;;;4.45;2.00;;;4.10;99.90;;;;;;4929645;29;20051;-71
2022/03/27 04:18:13;;;;;;;8.32;2.20;;;4.00;99.90;;;;;;4897902;29;20094;-70
2022/03/27 04:20:41;;;;;;;4.10;2.10;;;4.00;99.90;;;;;;4913235;28;20038;-71
2022/03/27 04:23:07;;;;;;;2.65;1.70;;;3.90;99.90;;;;;;4938802;28;20079;-71
2022/03/27 04:25:32;;;;;;;2.05;1.80;;;3.90;99.90;;;;;;4914615;29;20675;-70
2022/03/27 04:28:08;;;;;;;3.25;2.33;;;3.90;99.90;;;;;;4888187;29;20105;-71
2022/03/27 04:30:35;;;;;;;4.90;2.50;;;3.90;99.90;;;;;;4924257;28;20787;-70
2022/03/27 04:33:01;;;;;;;5.47;2.22;;;3.80;99.90;;;;;;4916217;29;20047;-70
2022/03/27 04:35:27;;;;;;;3.58;2.08;;;3.80;99.90;;;;;;4898033;29;20082;-70
2022/03/27 04:37:52;;;;;;;2.60;2.30;;;3.80;99.90;;;;;;4928708;29;20051;-70
2022/03/27 04:40:18;;;;;;;2.67;2.05;;;3.70;99.90;;;;;;4926929;28;20524;-70
2022/03/27 04:42:45;;;;;;;5.15;2.45;;;3.70;99.90;;;;;;4893219;29;20051;-70
2022/03/27 04:45:11;;;;;;;2.83;2.10;;;3.70;99.90;;;;;;4925964;28;20101;-71
2022/03/27 04:47:39;;;;;;;5.10;2.38;;;3.70;99.90;;;;;;4907082;29;20523;-70
2022/03/27 04:50:06;;;;;;;3.00;2.28;;;3.70;99.90;;;;;;4879737;29;20054;-70
2022/03/27 04:52:32;;;;;;;5.35;2.78;;;3.60;99.90;;;;;;4929211;28;20127;-70
2022/03/27 04:54:58;;;;;;;4.78;2.65;;;3.60;99.90;;;;;;4927275;29;20050;-70
2022/03/27 04:57:24;;;;;;;3.03;1.80;;;3.60;99.90;;;;;;4902873;29;20047;-70
2022/03/27 04:59:50;;;;;;;4.93;2.10;;;3.60;99.90;;;;;;4942174;28;20052;-70
2022/03/27 05:02:17;;;;;;;5.10;2.28;;;3.70;99.90;;;;;;4910071;29;20052;-70
2022/03/27 05:04:44;;;;;;;2.17;1.95;;;3.60;99.90;;;;;;4913057;29;20144;-70
2022/03/27 05:07:10;;;;;;;6.22;2.20;;;3.60;99.90;;;;;;4925102;29;20758;-70
2022/03/27 05:09:35;;;;;;;8.40;2.20;;;3.60;99.90;;;;;;4915931;29;20047;-70
2022/03/27 05:12:01;;;;;;;2.90;1.90;;;3.60;99.90;;;;;;4912644;29;20043;-70
2022/03/27 05:14:27;;;;;;;4.30;2.13;;;3.60;99.90;;;;;;4931484;29;20520;-70
2022/03/27 05:16:53;;;;;;;2.63;1.67;;;3.50;99.90;;;;;;4923729;29;20047;-71
2022/03/27 05:19:19;;;;;;;4.55;1.80;;;3.50;99.90;;;;;;4923988;28;20052;-70
2022/03/27 05:21:45;;;;;;;5.60;1.77;;;3.50;99.90;;;;;;4908048;29;20082;-70
2022/03/27 05:24:10;;;;;;;2.90;1.50;;;3.50;99.90;;;;;;4910077;29;20055;-71
2022/03/27 05:26:36;;;;;;;2.17;1.67;;;3.60;99.90;;;;;;4890555;29;20058;-70
2022/03/27 05:29:08;;;;;;;7.45;2.38;;;3.60;99.90;;;;;;4908534;29;20727;-70
2022/03/27 05:31:34;;;;;;;19.88;3.00;;;3.60;99.90;;;;;;4912618;29;20421;-70
2022/03/27 05:34:00;;;;;;;15.00;3.30;;;3.50;99.90;;;;;;4928339;29;20051;-70
2022/03/27 05:36:26;;;;;;;18.00;3.75;;;3.60;99.90;;;;;;4920572;29;20478;-71
2022/03/27 05:38:52;;;;;;;26.00;3.90;;;3.70;99.90;;;;;;4897593;29;20961;-71
2022/03/27 05:41:18;;;;;;;26.85;5.18;;;3.70;99.90;;;;;;4909158;29;20056;-71
2022/03/27 05:43:44;;;;;;;32.45;6.43;;;3.70;99.90;;;;;;4927561;29;20046;-71
2022/03/27 05:46:10;;;;;;;50.90;8.20;;;3.80;99.90;;;;;;4897240;29;20055;-71
2022/03/27 05:48:36;;;;;;;53.42;8.02;;;3.90;99.90;;;;;;4920452;29;21656;-71
2022/03/27 05:51:02;;;;;;;69.65;10.02;;;4.00;99.90;;;;;;4924317;29;20087;-71
2022/03/27 05:53:29;;;;;;;65.10;9.10;;;4.20;99.90;;;;;;4897840;29;20588;-71
2022/03/27 05:55:57;;;;;;;73.47;9.95;;;4.30;99.90;;;;;;4914471;29;20166;-71
2022/03/27 05:58:23;;;;;;;55.50;8.70;;;4.40;99.90;;;;;;4923703;29;20047;-71
2022/03/27 06:00:51;;;;;;;56.75;9.13;;;4.50;99.90;;;;;;4895023;29;20051;-71
2022/03/27 06:03:17;;;;;;;65.70;9.95;;;4.60;99.90;;;;;;4925985;28;20146;-71
2022/03/27 06:05:42;;;;;;;69.47;10.88;;;4.60;99.90;;;;;;4916872;29;20050;-71
2022/03/27 06:08:08;;;;;;;58.60;9.77;;;4.80;99.90;;;;;;4921015;28;20055;-71
2022/03/27 06:10:35;;;;;;;51.10;10.05;;;4.80;99.90;;;;;;4908495;29;20098;-72
2022/03/27 06:13:03;;;;;;;46.38;9.32;;;4.80;99.90;;;;;;4908550;28;20055;-71
2022/03/27 06:15:30;;;;;;;67.88;10.60;;;4.90;99.90;;;;;;4909015;29;20085;-71
2022/03/27 06:17:58;;;;;;;57.25;9.98;;;5.00;99.90;;;;;;4909369;29;20560;-71
2022/03/27 06:20:26;;;;;;;55.13;9.38;;;5.00;99.90;;;;;;4917578;29;20043;-71
2022/03/27 06:22:52;;;;;;;67.85;10.45;;;5.10;99.90;;;;;;4913809;29;20047;-71
2022/03/27 06:25:25;;;;;;;57.78;10.75;;;5.20;99.90;;;;;;4947609;28;20103;-71
2022/03/27 06:27:51;;;;;;;55.50;9.23;;;5.20;99.90;;;;;;4920178;29;20059;-71
2022/03/27 06:30:18;;;;;;;53.90;9.32;;;5.30;99.90;;;;;;4911462;29;20059;-72
2022/03/27 06:32:45;;;;;;;61.10;10.07;;;5.30;99.90;;;;;;4920318;29;20447;-72
2022/03/27 06:35:12;;;;;;;69.22;9.52;;;5.50;99.90;;;;;;4930673;29;20490;-72
2022/03/27 06:37:40;;;;;;;54.78;9.07;;;5.50;99.90;;;;;;4904421;29;20553;-72
2022/03/27 06:40:07;;;;;;;63.58;9.50;;;5.60;99.90;;;;;;4905283;29;20117;-72
2022/03/27 06:42:33;;;;;;;64.82;9.68;;;5.60;99.90;;;;;;4936084;28;20085;-72
2022/03/27 06:44:58;;;;;;;64.95;9.43;;;5.70;99.90;;;;;;4929436;28;20051;-72
2022/03/27 06:47:27;;;;;;;52.38;8.70;;;5.80;99.90;;;;;;4927955;29;20043;-72
2022/03/27 06:49:54;;;;;;;53.88;9.30;;;5.90;99.90;;;;;;4920793;29;20778;-72
2022/03/27 06:52:21;;;;;;;59.50;8.50;;;5.90;99.90;;;;;;4919663;29;20136;-72
2022/03/27 06:54:47;;;;;;;65.38;9.38;;;5.90;99.90;;;;;;4928527;28;20079;-72
2022/03/27 06:57:16;;;;;;;51.53;8.75;;;6.00;99.90;;;;;;4922791;29;20775;-72
2022/03/27 07:05:12;;;;;;;58.80;9.15;;;6.10;99.90;;;;;;4914718;29;20047;-72
2022/03/27 07:07:39;;;;;;;63.95;10.18;;;6.10;99.90;;;;;;4884834;28;20081;-72
2022/03/27 07:10:05;;;;;;;63.80;9.05;;;6.20;99.90;;;;;;4932366;28;20051;-72
2022/03/27 07:12:31;;;;;;;54.17;8.82;;;6.20;99.90;;;;;;4947289;28;20047;-72
2022/03/27 07:14:57;;;;;;;58.72;9.15;;;6.30;99.90;;;;;;4932400;28;20050;-72
2022/03/27 07:17:23;;;;;;;54.63;8.05;;;6.30;99.90;;;;;;4914135;29;20123;-72
2022/03/27 07:19:49;;;;;;;49.65;8.63;;;6.40;99.90;;;;;;4933894;28;20050;-72
2022/03/27 07:22:15;;;;;;;55.40;8.93;;;6.40;99.90;;;;;;4910783;29;20048;-72
2022/03/27 07:24:42;;;;;;;52.40;8.32;;;6.50;99.90;;;;;;4939521;29;20046;-72
2022/03/27 07:27:08;;;;;;;54.20;8.73;;;6.50;99.90;;;;;;4924471;29;20694;-72
2022/03/27 07:29:36;;;;;;;56.97;10.23;;;6.50;99.90;;;;;;4915281;29;20066;-72
2022/03/27 07:32:02;;;;;;;63.92;9.60;;;6.50;99.90;;;;;;4915861;29;20051;-72
2022/03/27 07:34:28;;;;;;;52.85;9.32;;;6.60;99.90;;;;;;4901494;29;20049;-72
2022/03/27 07:36:54;;;;;;;49.42;9.57;;;6.70;99.90;;;;;;4922070;29;20051;-72
2022/03/27 07:39:21;;;;;;;62.15;10.95;;;6.80;99.90;;;;;;4936888;28;20138;-73
2022/03/27 07:41:48;;;;;;;64.80;10.88;;;6.80;99.90;;;;;;4904419;29;20051;-72
2022/03/27 07:44:14;;;;;;;42.85;9.20;;;6.90;99.90;;;;;;4938569;29;20604;-72
2022/03/27 07:46:40;;;;;;;52.90;9.75;;;6.90;99.90;;;;;;4935742;28;20051;-73
2022/03/27 07:49:06;;;;;;;59.72;10.10;;;6.90;99.90;;;;;;4911373;29;20678;-72
2022/03/27 07:51:34;;;;;;;54.55;9.18;;;7.00;99.90;;;;;;4927351;29;20155;-73
2022/03/27 07:54:01;;;;;;;60.70;9.40;;;7.00;99.90;;;;;;4895522;29;20054;-73
2022/03/27 07:56:27;;;;;;;60.42;9.68;;;7.10;99.90;;;;;;4926728;29;20810;-73
2022/03/27 07:58:53;;;;;;;52.38;9.07;;;7.20;99.90;;;;;;4925075;29;20101;-73
2022/03/27 08:01:23;;;;;;;51.05;9.15;;;7.20;99.90;;;;;;4916701;29;20091;-73
2022/03/27 08:03:49;;;;;;;50.35;9.88;;;7.20;99.90;;;;;;4926832;29;20554;-73
2022/03/27 08:06:16;;;;;;;50.15;10.50;;;7.30;99.90;;;;;;4934090;29;20122;-73
2022/03/27 08:08:42;;;;;;;56.78;9.90;;;7.20;99.90;;;;;;4940079;29;20052;-73
2022/03/27 08:11:09;;;;;;;65.60;10.60;;;7.30;99.90;;;;;;4910357;29;20043;-73
2022/03/27 08:13:36;;;;;;;51.75;9.65;;;7.30;99.90;;;;;;4926456;29;20062;-72
2022/03/27 08:16:02;;;;;;;47.80;9.23;;;7.50;99.90;;;;;;4923591;29;20048;-73
2022/03/27 08:18:27;;;;;;;35.10;8.68;;;7.60;99.90;;;;;;4924720;29;20070;-73
2022/03/27 08:20:53;;;;;;;47.05;9.35;;;7.60;99.90;;;;;;4921306;29;20490;-73
2022/03/27 08:23:19;;;;;;;53.80;9.20;;;7.70;99.90;;;;;;4921352;29;20063;-72
2022/03/27 08:28:29;;;;;;;39.80;8.88;;;7.70;99.90;;;;;;4929831;29;20055;-73
2022/03/27 08:30:55;;;;;;;41.00;9.13;;;7.70;99.90;;;;;;4904163;29;20044;-73
2022/03/27 08:33:21;;;;;;;48.72;9.98;;;7.70;99.90;;;;;;4889666;29;20408;-73
2022/03/27 08:35:47;;;;;;;53.60;9.20;;;7.70;99.90;;;;;;4917204;29;20067;-73
2022/03/27 08:38:15;;;;;;;51.15;9.25;;;7.70;99.90;;;;;;4941889;29;20085;-74
2022/03/27 08:40:42;;;;;;;45.53;8.48;;;7.80;99.90;;;;;;4904880;29;20047;-73
2022/03/27 08:43:13;;;;;;;52.38;8.82;;;7.90;99.90;;;;;;4939665;28;20102;-73
2022/03/27 08:45:40;;;;;;;56.80;9.30;;;7.90;99.90;;;;;;4946293;28;20549;-73
2022/03/27 08:48:06;;;;;;;37.97;9.10;;;8.10;99.90;;;;;;4907135;29;20054;-74
2022/03/27 08:50:34;;;;;;;49.00;9.43;;;8.20;99.90;;;;;;4914141;29;20620;-73
2022/03/27 08:53:04;;;;;;;45.45;9.35;;;8.30;99.90;;;;;;4928544;28;20174;-73
2022/03/27 08:55:42;;;;;;;49.55;9.75;;;8.40;99.90;;;;;;4918067;28;20538;-74
2022/03/27 08:58:09;;;;;;;56.90;9.55;;;8.60;99.90;;;;;;4928467;28;20126;-74
2022/03/27 09:00:36;;;;;;;48.50;9.07;;;8.70;99.90;;;;;;4911580;29;20051;-73
2022/03/27 09:03:04;;;;;;;44.03;9.02;;;8.70;99.90;;;;;;4932895;28;20052;-73
2022/03/27 09:05:32;;;;;;;39.28;8.07;;;8.80;99.90;;;;;;4931755;29;20055;-73
2022/03/27 09:08:07;;;;;;;46.25;9.13;;;8.90;99.90;;;;;;4926244;29;20095;-74
2022/03/27 09:10:34;;;;;;;44.55;8.40;;;9.10;99.90;;;;;;4914205;29;20054;-73
2022/03/27 09:13:00;;;;;;;48.08;8.55;;;9.30;99.90;;;;;;4918618;29;20048;-73
2022/03/27 09:15:26;;;;;;;43.88;9.18;;;9.40;99.90;;;;;;4901812;29;20055;-74
2022/03/27 09:18:12;;;;;;;53.25;9.18;;;9.60;99.90;;;;;;4906368;28;20070;-73
2022/03/27 09:20:53;;;;;;;45.25;7.78;;;9.70;99.90;;;;;;4920831;29;20055;-73
2022/03/27 09:23:22;;;;;;;38.60;8.50;;;9.80;99.90;;;;;;4919916;29;20553;-73
2022/03/27 09:26:11;;;;;;;44.10;9.02;;;9.90;99.90;;;;;;4920366;29;20545;-73
2022/03/27 09:28:43;;;;;;;38.35;8.20;;;10.10;99.90;;;;;;4932531;29;20139;-73
2022/03/27 09:31:16;;;;;;;36.93;7.23;;;10.20;99.90;;;;;;4909405;29;20094;-73
2022/03/27 09:33:46;;;;;;;42.40;8.77;;;10.30;99.90;;;;;;4927674;29;20301;-73
2022/03/27 09:36:22;;;;;;;38.47;7.30;;;10.40;99.90;;;;;;4934396;29;20079;-73
2022/03/27 09:39:10;;;;;;;40.05;7.22;;;10.50;99.90;;;;;;4920686;29;20060;-73
2022/03/27 09:41:54;;;;;;;42.03;8.02;;;10.70;99.90;;;;;;4919770;29;20055;-73
2022/03/27 09:44:22;;;;;;;47.63;9.40;;;10.80;99.90;;;;;;4920701;28;20482;-72
2022/03/27 09:46:57;;;;;;;39.55;8.20;;;10.90;99.90;;;;;;4926070;28;20142;-73
2022/03/27 09:49:30;;;;;;;37.03;7.25;;;11.00;99.90;;;;;;4933053;28;20502;-72
2022/03/27 09:51:59;;;;;;;40.83;7.72;;;11.10;99.90;;;;;;4928185;28;20122;-72
2022/03/27 09:54:27;;;;;;;38.97;7.90;;;11.10;99.90;;;;;;4933656;29;20788;-73
2022/03/27 09:56:54;;;;;;;40.55;8.35;;;11.10;99.90;;;;;;4924413;28;20463;-73
2022/03/27 09:59:32;;;;;;;36.78;7.38;;;11.20;99.90;;;;;;4908429;29;20057;-72
2022/03/27 10:02:17;;;;;;;35.78;7.38;;;11.30;99.90;;;;;;4875874;28;20051;-72
2022/03/27 10:04:59;;;;;;;39.58;7.50;;;11.50;99.90;;;;;;4923230;29;20113;-73
2022/03/27 10:07:26;;;;;;;37.72;7.63;;;11.60;99.90;;;;;;4906007;29;20051;-72
2022/03/27 10:09:59;;;;;;;32.38;6.50;;;11.70;99.90;;;;;;4892297;29;20094;-72
2022/03/27 10:12:31;;;;;;;34.95;7.43;;;11.90;99.90;;;;;;4926431;28;20085;-72
2022/03/27 10:15:06;;;;;;;37.95;7.80;;;12.00;99.90;;;;;;4907890;29;20093;-72
2022/03/27 10:17:35;;;;;;;34.72;6.65;;;12.10;99.90;;;;;;4910423;29;20046;-72
2022/03/27 10:20:12;;;;;;;37.15;7.30;;;12.30;99.90;;;;;;4934694;28;20051;-72
2022/03/27 10:23:10;;;;;;;33.20;7.07;;;12.40;99.90;;;;;;4921190;28;20046;-72
2022/03/27 10:25:47;;;;;;;34.47;6.50;;;12.60;99.90;;;;;;4899547;29;20114;-71
2022/03/27 10:28:16;;;;;;;36.13;7.38;;;12.70;99.90;;;;;;4929517;28;20170;-72
2022/03/27 10:30:44;;;;;;;34.60;6.47;;;12.80;99.90;;;;;;4904867;29;20047;-71
2022/03/27 10:33:10;;;;;;;35.47;7.10;;;12.90;99.90;;;;;;4911184;29;20047;-71
2022/03/27 10:35:57;;;;;;;36.35;6.65;;;13.10;99.90;;;;;;4922834;28;20051;-71
2022/03/27 10:38:45;;;;;;;38.83;7.30;;;13.20;99.90;;;;;;4928403;28;20093;-71
2022/03/27 10:41:48;;;;;;;33.47;7.13;;;13.30;99.90;;;;;;4908240;29;20051;-71
2022/03/27 10:44:53;;;;;;;31.60;6.70;;;13.50;99.90;;;;;;4911666;29;20059;-71
2022/03/27 10:47:21;;;;;;;33.67;6.90;;;13.60;99.90;;;;;;4907040;29;20054;-70
2022/03/27 10:50:02;;;;;;;40.00;7.47;;;13.70;99.90;;;;;;4923195;28;20985;-70
2022/03/27 10:52:55;;;;;;;39.50;7.35;;;13.80;99.90;;;;;;4929611;28;20087;-72
2022/03/27 10:55:21;;;;;;;31.60;7.10;;;13.90;99.90;;;;;;4924129;28;20959;-72
2022/03/27 10:57:51;;;;;;;31.67;5.68;;;14.00;99.90;;;;;;4929604;28;20122;-70
2022/03/27 11:00:39;;;;;;;24.63;4.90;;;14.10;98.70;;;;;;4914283;29;20051;-70
2022/03/27 11:03:06;;;;;;;26.70;5.60;;;14.20;96.00;;;;;;4927975;29;20059;-74
2022/03/27 11:05:31;;;;;;;28.65;6.13;;;14.20;97.20;;;;;;4915134;29;20500;-73
2022/03/27 11:08:17;;;;;;;32.58;5.70;;;14.30;95.30;;;;;;4936730;28;20078;-74
2022/03/27 11:10:51;;;;;;;22.65;5.20;;;14.40;95.20;;;;;;4912594;28;20582;-76
2022/03/27 11:13:26;;;;;;;31.25;5.78;;;14.60;95.60;;;;;;4922798;29;20525;-74
2022/03/27 11:16:09;;;;;;;26.38;5.22;;;14.70;94.40;;;;;;4926521;28;20059;-76
2022/03/27 11:18:43;;;;;;;22.58;4.90;;;14.90;94.00;;;;;;4911296;29;20054;-77
2022/03/27 11:21:14;;;;;;;24.45;4.43;;;15.00;91.80;;;;;;4913448;29;20067;-72
2022/03/27 11:23:41;;;;;;;23.00;4.70;;;15.20;90.90;;;;;;4930696;28;20051;-73
2022/03/27 11:26:19;;;;;;;17.80;3.80;;;15.30;87.20;;;;;;4933653;28;20094;-74
2022/03/27 11:28:51;;;;;;;22.83;4.32;;;15.30;83.80;;;;;;4919471;28;20166;-74
2022/03/27 11:31:23;;;;;;;22.75;3.88;;;15.40;81.80;;;;;;4934101;28;20055;-74
2022/03/27 11:34:19;;;;;;;17.35;4.13;;;15.40;81.60;;;;;;4923936;29;20065;-71
2022/03/27 11:37:22;;;;;;;19.73;4.35;;;15.60;80.30;;;;;;4920101;29;20081;-72
2022/03/27 11:39:49;;;;;;;19.42;4.28;;;15.90;81.30;;;;;;4931009;29;20056;-72
2022/03/27 11:42:31;;;;;;;22.30;5.18;;;16.00;78.40;;;;;;4934940;28;20421;-74
2022/03/27 11:45:18;;;;;;;19.63;4.40;;;16.10;73.30;;;;;;4933251;29;20870;-70
2022/03/27 11:47:50;;;;;;;17.98;4.70;;;16.10;72.60;;;;;;4930247;28;20418;-68
2022/03/27 11:50:26;;;;;;;16.95;3.78;;;16.10;72.70;;;;;;4918402;29;20052;-67
2022/03/27 11:52:52;;;;;;;15.98;4.38;;;16.30;71.00;;;;;;4922508;29;20118;-67
2022/03/27 11:55:19;;;;;;;18.80;5.05;;;16.30;70.30;;;;;;4945282;28;20134;-67
2022/03/27 11:57:52;;;;;;;18.88;3.60;;;16.30;69.70;;;;;;4925787;28;20071;-66
2022/03/27 12:00:35;;;;;;;17.02;4.57;;;16.40;67.80;;;;;;4915791;29;20078;-66
2022/03/27 12:03:03;;;;;;;15.57;3.67;;;16.40;69.20;;;;;;4914435;29;20066;-66
2022/03/27 12:05:34;;;;;;;20.77;4.22;;;16.60;68.30;;;;;;4933094;28;20055;-66
2022/03/27 12:08:00;;;;;;;15.63;3.40;;;16.70;67.70;;;;;;4926765;28;20130;-66
2022/03/27 12:10:26;;;;;;;19.13;4.45;;;16.70;64.90;;;;;;4908426;29;20047;-64
2022/03/27 12:12:57;;;;;;;17.98;3.20;;;16.70;64.40;;;;;;4922387;29;20055;-66
2022/03/27 12:15:42;;;;;;;20.80;4.03;;;16.80;63.80;;;;;;4916807;29;20490;-67
2022/03/27 12:18:08;;;;;;;18.38;3.55;;;16.80;62.70;;;;;;4931717;28;20123;-66
2022/03/27 12:20:49;;;;;;;18.23;3.75;;;16.90;63.40;;;;;;4940872;28;20051;-65
2022/03/27 12:23:22;;;;;;;17.63;3.53;;;17.00;63.10;;;;;;4917156;28;20498;-66
2022/03/27 12:26:03;;;;;;;13.75;3.38;;;17.10;61.90;;;;;;4928761;28;20055;-66
2022/03/27 12:31:25;;;;;;;16.30;3.72;;;17.30;61.30;;;;;;4915042;28;20053;-65
2022/03/27 12:33:52;;;;;;;16.17;3.83;;;17.40;60.20;;;;;;4924931;29;20051;-66
2022/03/27 12:36:18;;;;;;;22.58;4.10;;;17.40;60.80;;;;;;4918790;28;20590;-66
2022/03/27 12:38:44;;;;;;;16.13;4.07;;;17.40;61.00;;;;;;4915978;29;20533;-66
2022/03/27 12:41:11;;;;;;;14.15;4.10;;;17.50;60.80;;;;;;4926727;28;20481;-65
2022/03/27 12:43:59;;;;;;;15.40;3.83;;;17.60;61.10;;;;;;4939573;28;20052;-66
2022/03/27 12:46:25;;;;;;;17.92;4.18;;;17.70;60.30;;;;;;4929710;29;20046;-66
2022/03/27 12:49:10;;;;;;;15.60;3.63;;;17.70;60.00;;;;;;4925167;28;20051;-66
2022/03/27 12:51:36;;;;;;;21.98;4.50;;;17.70;60.20;;;;;;4943627;28;20061;-66
2022/03/27 12:54:06;;;;;;;22.52;4.50;;;17.70;60.00;;;;;;4926596;29;20780;-66
2022/03/27 12:56:32;;;;;;;21.45;5.05;;;17.80;61.20;;;;;;4904917;29;20455;-65
2022/03/27 12:58:58;;;;;;;20.60;4.47;;;17.80;61.80;;;;;;4926589;28;20051;-66
2022/03/27 13:01:25;;;;;;;20.38;4.47;;;18.00;61.70;;;;;;4928582;29;20054;-66
2022/03/27 13:04:04;;;;;;;24.83;4.45;;;18.00;61.30;;;;;;4943310;28;20495;-66
2022/03/27 13:07:03;;;;;;;28.80;6.00;;;18.00;61.50;;;;;;4924819;28;20058;-66
2022/03/27 13:09:30;;;;;;;22.25;5.32;;;18.00;61.30;;;;;;4912724;29;20052;-67
2022/03/27 13:11:56;;;;;;;23.13;5.40;;;18.00;61.60;;;;;;4926083;29;20059;-66